createdAt,value
2023-03-22T00:00:12.786Z,31.70
2023-03-22T00:05:15.414Z,34.30
2023-03-22T00:10:17.988Z,32.67
2023-03-22T00:15:20.721Z,28.27
2023-03-22T00:20:23.742Z,32.60
2023-03-22T00:25:26.864Z,33.07
2023-03-22T00:30:29.388Z,32.27
2023-03-22T00:35:32.267Z,29.63
2023-03-22T00:40:34.800Z,28.27
2023-03-22T00:45:38.208Z,32.40
2023-03-22T00:50:41.330Z,34.03
2023-03-22T00:55:44.042Z,33.07
2023-03-22T01:01:15.338Z,33.40
2023-03-22T01:06:18.439Z,33.20
2023-03-22T01:11:21.610Z,33.20
2023-03-22T01:16:24.429Z,32.53
2023-03-22T01:21:27.205Z,31.07
2023-03-22T01:26:29.918Z,31.80
2023-03-22T01:31:32.467Z,30.47
2023-03-22T01:36:35.009Z,31.57
2023-03-22T01:41:38.407Z,31.60
2023-03-22T01:46:50.629Z,33.27
2023-03-22T01:51:58.964Z,22.30
2023-03-22T01:57:38.485Z,29.10
2023-03-22T02:02:48.794Z,34.00
2023-03-22T02:07:59.494Z,25.77
2023-03-22T02:13:19.824Z,28.47
2023-03-22T02:18:35.923Z,32.83
2023-03-22T02:23:53.650Z,31.27
2023-03-22T02:29:34.631Z,31.10
2023-03-22T02:34:39.938Z,26.50
2023-03-22T02:39:56.279Z,33.37
2023-03-22T02:45:09.040Z,29.67
2023-03-22T02:50:22.964Z,27.67
2023-03-22T02:55:37.640Z,29.70
2023-03-22T03:00:41.858Z,29.67
2023-03-22T03:05:55.275Z,27.67
2023-03-22T03:10:57.917Z,27.37
2023-03-22T03:16:03.024Z,27.70
2023-03-22T03:21:18.127Z,27.77
2023-03-22T03:26:35.943Z,29.30
2023-03-22T03:31:47.861Z,27.67
2023-03-22T03:37:09.695Z,29.07
2023-03-22T03:42:17.886Z,24.97
2023-03-22T03:47:21.843Z,28.63
2023-03-22T03:52:26.275Z,27.70
2023-03-22T03:57:28.950Z,28.77
2023-03-22T04:02:31.534Z,29.87
2023-03-22T04:07:35.827Z,26.97
2023-03-22T04:12:38.716Z,28.00
2023-03-22T04:17:54.170Z,28.63
2023-03-22T04:23:00.358Z,27.50
2023-03-22T04:28:04.406Z,25.60
2023-03-22T04:33:12.227Z,28.60
2023-03-22T04:38:33.504Z,24.00
2023-03-22T04:43:39.272Z,32.37
2023-03-22T04:48:45.649Z,25.47
2023-03-22T04:53:48.989Z,26.73
2023-03-22T04:58:51.797Z,29.27
2023-03-22T05:03:54.512Z,22.20
2023-03-22T05:08:59.683Z,24.53
2023-03-22T05:14:03.551Z,22.17
2023-03-22T05:19:14.232Z,22.10
2023-03-22T05:24:21.242Z,28.03
2023-03-22T05:29:24.978Z,31.47
2023-03-22T05:34:45.514Z,23.67
2023-03-22T05:40:10.107Z,18.40
2023-03-22T05:45:17.656Z,29.50
2023-03-22T05:50:24.684Z,26.13
2023-03-22T05:55:30.303Z,26.33
2023-03-22T06:00:35.835Z,29.07
2023-03-22T06:05:56.629Z,23.60
2023-03-22T06:11:11.616Z,23.63
2023-03-22T06:16:16.648Z,13.57
2023-03-22T06:21:19.572Z,19.40
2023-03-22T06:26:22.815Z,12.87
2023-03-22T06:31:25.667Z,17.50
2023-03-22T06:36:32.668Z,12.60
2023-03-22T06:41:46.318Z,19.10
2023-03-22T06:46:48.977Z,9.13
2023-03-22T06:52:10.298Z,12.03
2023-03-22T06:57:13.272Z,11.30
2023-03-22T07:02:15.907Z,13.43
2023-03-22T07:07:36.603Z,16.97
2023-03-22T07:12:39.643Z,14.10
2023-03-22T07:17:47.418Z,18.70
2023-03-22T07:22:51.637Z,18.23
2023-03-22T07:27:56.741Z,17.83
2023-03-22T07:33:00.662Z,12.47
2023-03-22T07:38:06.543Z,17.70
2023-03-22T07:43:12.121Z,21.80
2023-03-22T07:48:25.729Z,30.50
2023-03-22T07:53:57.689Z,11.83
2023-03-22T07:59:02.239Z,11.40
2023-03-22T08:04:05.076Z,10.40
2023-03-22T08:09:19.676Z,16.63
2023-03-22T08:14:34.029Z,15.20
2023-03-22T08:19:40.420Z,11.30
2023-03-22T08:24:47.020Z,13.33
2023-03-22T08:30:00.907Z,8.70
2023-03-22T08:35:06.407Z,11.93
2023-03-22T08:40:10.536Z,5.43
2023-03-22T08:45:17.989Z,9.97
2023-03-22T08:50:28.614Z,14.10
2023-03-22T08:55:47.308Z,10.80
2023-03-22T09:01:06.579Z,12.20
2023-03-22T09:06:18.564Z,7.93
2023-03-22T09:11:23.238Z,8.13
2023-03-22T09:16:25.849Z,11.27
2023-03-22T09:21:31.913Z,9.90
2023-03-22T09:26:43.596Z,8.33
2023-03-22T09:31:48.968Z,10.50
2023-03-22T09:37:06.553Z,9.83
2023-03-22T09:42:30.415Z,7.00
2023-03-22T09:47:45.483Z,8.40
2023-03-22T09:52:49.286Z,5.60
2023-03-22T09:58:21.448Z,8.83
2023-03-22T10:03:30.512Z,4.90
2023-03-22T10:09:00.324Z,6.53
2023-03-22T10:14:27.734Z,6.23
2023-03-22T10:19:37.112Z,6.33
2023-03-22T10:24:42.832Z,6.30
2023-03-22T10:29:56.978Z,8.00
2023-03-22T10:34:59.463Z,6.67
2023-03-22T10:40:08.175Z,7.20
2023-03-22T10:45:15.552Z,7.90
2023-03-22T10:50:28.620Z,6.63
2023-03-22T10:55:31.188Z,7.03
2023-03-22T11:00:33.697Z,7.60
2023-03-22T11:05:36.247Z,10.10
2023-03-22T11:10:38.764Z,5.93
2023-03-22T11:15:50.952Z,7.53
2023-03-22T11:21:05.855Z,4.10
2023-03-22T11:26:11.606Z,6.07
2023-03-22T11:31:16.895Z,5.77
2023-03-22T11:36:19.546Z,9.57
2023-03-22T11:41:27.932Z,8.43
2023-03-22T11:46:31.900Z,5.53
2023-03-22T11:51:37.672Z,8.27
2023-03-22T11:56:43.551Z,7.80
2023-03-22T12:01:51.528Z,7.07
2023-03-22T12:06:58.308Z,6.93
2023-03-22T12:12:03.610Z,6.17
2023-03-22T12:17:18.585Z,4.90
2023-03-22T12:22:32.754Z,6.43
2023-03-22T12:27:39.728Z,5.97
2023-03-22T12:32:53.887Z,7.43
2023-03-22T12:38:01.853Z,6.30
2023-03-22T12:44:00.291Z,5.77
2023-03-22T12:49:21.597Z,6.37
2023-03-22T12:54:26.684Z,7.33
2023-03-22T12:59:31.354Z,5.53
2023-03-22T13:04:36.598Z,7.23
2023-03-22T13:09:51.223Z,7.03
2023-03-22T13:15:01.019Z,6.97
2023-03-22T13:20:12.227Z,5.93
2023-03-22T13:25:19.025Z,6.90
2023-03-22T13:30:24.214Z,5.40
2023-03-22T13:35:51.132Z,5.57
2023-03-22T13:40:56.838Z,6.60
2023-03-22T13:46:11.754Z,5.63
2023-03-22T13:51:34.654Z,3.00
2023-03-22T13:56:56.400Z,6.57
2023-03-22T14:01:59.120Z,4.47
2023-03-22T14:07:25.882Z,3.40
2023-03-22T14:12:53.937Z,3.93
2023-03-22T14:18:06.856Z,3.60
